Overview Statistics Trail Chart Weather Telemetry Raw packets
 

This is the latest recevied weather packets stored in our database for station/object DL7KAW-10. If no packets are shown the sender has not sent any weather packets the latest 10 day(s).

<< 26 27 28 29 30 31 32 >>
Time Temp. Humidity Pressure Rain* Wind** Luminosity Snow
1788095783 22.22° C 63% 1009.6 hPa - - - -
1788094883 22.22° C 64% 1009.6 hPa - - - -
1788093983 22.22° C 63% 1009.6 hPa - - - -
1788093083 22.22° C 63% 1009.6 hPa - - - -
1788092183 22.22° C 63% 1009.7 hPa - - - -
1788091282 22.22° C 64% 1009.6 hPa - - - -
1788090382 22.22° C 63% 1009.5 hPa - - - -
1788089482 22.22° C 63% 1009.4 hPa - - - -
1788088582 22.22° C 63% 1009.5 hPa - - - -
1788087682 22.22° C 64% 1009.5 hPa - - - -
1788086782 22.22° C 62% 1009.6 hPa - - - -
1788085882 22.22° C 62% 1009.7 hPa - - - -
1788084982 22.22° C 62% 1009.7 hPa - - - -
1788084081 22.22° C 62% 1009.8 hPa - - - -
1788083181 22.22° C 61% 1009.8 hPa - - - -
1788082281 22.22° C 61% 1009.9 hPa - - - -
1788081381 22.78° C 60% 1009.7 hPa - - - -
1788080481 22.22° C 60% 1009.7 hPa - - - -
1788079581 22.22° C 61% 1010 hPa - - - -
1788078681 22.78° C 59% 1009.9 hPa - - - -
1788077781 25.56° C 51% 1009.9 hPa - - - -
1788076881 22.22° C 61% 1009.9 hPa - - - -
1788075980 21.67° C 63% 1009.9 hPa - - - -
1788075080 21.67° C 63% 1010.1 hPa - - - -
1788074180 21.67° C 61% 1010 hPa - - - -

* Rain since midnight (hover to see other rain measurements)
** Current wind speed in m/s (hover to see current wind gust speed)